sensor_id;sensor_type;location;lat;lon;timestamp;P1;durP1;ratioP1;P2;durP2;ratioP2
46463;SDS011;32161;48.148;-1.554;2022-10-16T00:01:45;4.80;;;2.15;;
46463;SDS011;32161;48.148;-1.554;2022-10-16T00:04:13;2.15;;;2.00;;
46463;SDS011;32161;48.148;-1.554;2022-10-16T00:06:41;6.82;;;2.10;;
46463;SDS011;32161;48.148;-1.554;2022-10-16T00:09:09;4.05;;;2.22;;
46463;SDS011;32161;48.148;-1.554;2022-10-16T00:11:37;3.50;;;2.70;;
46463;SDS011;32161;48.148;-1.554;2022-10-16T00:14:08;7.13;;;3.20;;
46463;SDS011;32161;48.148;-1.554;2022-10-16T00:16:40;8.75;;;2.90;;
46463;SDS011;32161;48.148;-1.554;2022-10-16T00:19:08;6.03;;;3.40;;
46463;SDS011;32161;48.148;-1.554;2022-10-16T00:21:37;4.43;;;3.58;;
46463;SDS011;32161;48.148;-1.554;2022-10-16T00:24:06;4.25;;;3.85;;
46463;SDS011;32161;48.148;-1.554;2022-10-16T00:26:35;6.72;;;4.03;;
46463;SDS011;32161;48.148;-1.554;2022-10-16T00:29:05;6.75;;;3.88;;
46463;SDS011;32161;48.148;-1.554;2022-10-16T00:31:33;3.65;;;3.33;;
46463;SDS011;32161;48.148;-1.554;2022-10-16T00:34:02;9.27;;;4.25;;
46463;SDS011;32161;48.148;-1.554;2022-10-16T00:36:30;10.50;;;4.38;;
46463;SDS011;32161;48.148;-1.554;2022-10-16T00:38:57;4.68;;;4.25;;
46463;SDS011;32161;48.148;-1.554;2022-10-16T00:41:26;6.75;;;3.90;;
46463;SDS011;32161;48.148;-1.554;2022-10-16T00:43:55;6.13;;;4.60;;
46463;SDS011;32161;48.148;-1.554;2022-10-16T00:46:25;7.95;;;4.43;;
46463;SDS011;32161;48.148;-1.554;2022-10-16T00:48:55;6.07;;;4.38;;
46463;SDS011;32161;48.148;-1.554;2022-10-16T00:51:30;5.95;;;4.38;;
46463;SDS011;32161;48.148;-1.554;2022-10-16T00:54:01;7.90;;;6.25;;
46463;SDS011;32161;48.148;-1.554;2022-10-16T00:56:31;5.40;;;4.68;;
46463;SDS011;32161;48.148;-1.554;2022-10-16T00:58:59;9.23;;;4.97;;
46463;SDS011;32161;48.148;-1.554;2022-10-16T01:01:30;9.52;;;4.50;;
46463;SDS011;32161;48.148;-1.554;2022-10-16T01:03:57;4.95;;;4.47;;
46463;SDS011;32161;48.148;-1.554;2022-10-16T01:06:26;6.55;;;4.95;;
46463;SDS011;32161;48.148;-1.554;2022-10-16T01:09:11;10.75;;;5.22;;
46463;SDS011;32161;48.148;-1.554;2022-10-16T01:11:49;8.20;;;5.28;;
46463;SDS011;32161;48.148;-1.554;2022-10-16T01:14:30;8.10;;;4.97;;
46463;SDS011;32161;48.148;-1.554;2022-10-16T01:17:07;11.68;;;5.30;;
46463;SDS011;32161;48.148;-1.554;2022-10-16T01:19:44;6.18;;;5.05;;
46463;SDS011;32161;48.148;-1.554;2022-10-16T01:22:33;6.57;;;5.13;;
46463;SDS011;32161;48.148;-1.554;2022-10-16T01:25:09;8.75;;;5.30;;
46463;SDS011;32161;48.148;-1.554;2022-10-16T01:27:46;11.55;;;5.78;;
46463;SDS011;32161;48.148;-1.554;2022-10-16T01:30:15;9.13;;;5.60;;
46463;SDS011;32161;48.148;-1.554;2022-10-16T01:32:49;6.28;;;4.85;;
46463;SDS011;32161;48.148;-1.554;2022-10-16T01:35:23;5.85;;;4.00;;
46463;SDS011;32161;48.148;-1.554;2022-10-16T01:37:57;8.00;;;4.18;;
46463;SDS011;32161;48.148;-1.554;2022-10-16T01:40:29;7.70;;;4.22;;
46463;SDS011;32161;48.148;-1.554;2022-10-16T01:43:03;8.10;;;3.95;;
46463;SDS011;32161;48.148;-1.554;2022-10-16T01:45:35;9.35;;;4.28;;
46463;SDS011;32161;48.148;-1.554;2022-10-16T01:48:03;15.23;;;5.18;;
46463;SDS011;32161;48.148;-1.554;2022-10-16T01:50:35;9.70;;;3.72;;
46463;SDS011;32161;48.148;-1.554;2022-10-16T01:53:08;8.55;;;4.47;;
46463;SDS011;32161;48.148;-1.554;2022-10-16T01:55:39;7.60;;;4.43;;
46463;SDS011;32161;48.148;-1.554;2022-10-16T01:58:13;6.68;;;3.83;;
46463;SDS011;32161;48.148;-1.554;2022-10-16T02:00:42;12.60;;;3.95;;
46463;SDS011;32161;48.148;-1.554;2022-10-16T02:03:13;5.50;;;3.45;;
46463;SDS011;32161;48.148;-1.554;2022-10-16T02:05:45;5.38;;;3.25;;
46463;SDS011;32161;48.148;-1.554;2022-10-16T02:08:17;9.65;;;3.13;;
46463;SDS011;32161;48.148;-1.554;2022-10-16T02:10:45;11.00;;;3.42;;
46463;SDS011;32161;48.148;-1.554;2022-10-16T02:13:15;6.10;;;3.63;;
46463;SDS011;32161;48.148;-1.554;2022-10-16T02:15:48;8.85;;;3.40;;
46463;SDS011;32161;48.148;-1.554;2022-10-16T02:18:15;6.30;;;4.18;;
46463;SDS011;32161;48.148;-1.554;2022-10-16T02:20:45;5.57;;;3.08;;
46463;SDS011;32161;48.148;-1.554;2022-10-16T02:23:20;8.07;;;4.95;;
46463;SDS011;32161;48.148;-1.554;2022-10-16T02:26:02;4.60;;;3.00;;
46463;SDS011;32161;48.148;-1.554;2022-10-16T02:28:35;7.25;;;3.70;;
46463;SDS011;32161;48.148;-1.554;2022-10-16T02:31:09;7.75;;;3.60;;
46463;SDS011;32161;48.148;-1.554;2022-10-16T02:33:42;8.05;;;3.80;;
46463;SDS011;32161;48.148;-1.554;2022-10-16T02:36:12;4.88;;;2.95;;
46463;SDS011;32161;48.148;-1.554;2022-10-16T02:38:40;5.80;;;3.45;;
46463;SDS011;32161;48.148;-1.554;2022-10-16T02:41:08;7.18;;;3.20;;
46463;SDS011;32161;48.148;-1.554;2022-10-16T02:43:38;8.13;;;3.40;;
46463;SDS011;32161;48.148;-1.554;2022-10-16T02:46:05;8.32;;;3.88;;
46463;SDS011;32161;48.148;-1.554;2022-10-16T02:48:34;5.07;;;3.25;;
46463;SDS011;32161;48.148;-1.554;2022-10-16T02:51:01;6.82;;;4.13;;
46463;SDS011;32161;48.148;-1.554;2022-10-16T02:53:29;8.40;;;3.85;;
46463;SDS011;32161;48.148;-1.554;2022-10-16T02:55:57;6.60;;;4.03;;
46463;SDS011;32161;48.148;-1.554;2022-10-16T02:58:24;4.55;;;3.85;;
46463;SDS011;32161;48.148;-1.554;2022-10-16T03:00:54;9.07;;;4.72;;
46463;SDS011;32161;48.148;-1.554;2022-10-16T03:03:22;6.30;;;3.97;;
46463;SDS011;32161;48.148;-1.554;2022-10-16T03:05:50;7.00;;;3.75;;
46463;SDS011;32161;48.148;-1.554;2022-10-16T03:08:17;10.40;;;4.25;;
46463;SDS011;32161;48.148;-1.554;2022-10-16T03:10:48;17.05;;;5.00;;
46463;SDS011;32161;48.148;-1.554;2022-10-16T03:13:16;7.78;;;3.95;;
46463;SDS011;32161;48.148;-1.554;2022-10-16T03:15:45;5.18;;;4.20;;
46463;SDS011;32161;48.148;-1.554;2022-10-16T03:18:14;8.68;;;4.25;;
46463;SDS011;32161;48.148;-1.554;2022-10-16T03:20:42;6.43;;;4.05;;
46463;SDS011;32161;48.148;-1.554;2022-10-16T03:23:10;4.20;;;3.80;;
46463;SDS011;32161;48.148;-1.554;2022-10-16T03:25:38;5.32;;;3.63;;
46463;SDS011;32161;48.148;-1.554;2022-10-16T03:28:06;8.00;;;3.92;;
46463;SDS011;32161;48.148;-1.554;2022-10-16T03:30:34;9.75;;;4.80;;
46463;SDS011;32161;48.148;-1.554;2022-10-16T03:33:01;8.93;;;4.57;;
46463;SDS011;32161;48.148;-1.554;2022-10-16T03:35:31;12.65;;;4.72;;
46463;SDS011;32161;48.148;-1.554;2022-10-16T03:37:59;9.80;;;4.78;;
46463;SDS011;32161;48.148;-1.554;2022-10-16T03:40:27;15.45;;;5.80;;
46463;SDS011;32161;48.148;-1.554;2022-10-16T03:42:57;9.60;;;5.53;;
46463;SDS011;32161;48.148;-1.554;2022-10-16T03:45:24;7.82;;;5.90;;
46463;SDS011;32161;48.148;-1.554;2022-10-16T03:47:52;8.93;;;6.05;;
46463;SDS011;32161;48.148;-1.554;2022-10-16T03:50:20;14.75;;;6.60;;
46463;SDS011;32161;48.148;-1.554;2022-10-16T03:52:49;19.02;;;6.38;;
46463;SDS011;32161;48.148;-1.554;2022-10-16T03:55:16;11.50;;;6.00;;
46463;SDS011;32161;48.148;-1.554;2022-10-16T03:57:44;12.68;;;6.00;;
46463;SDS011;32161;48.148;-1.554;2022-10-16T04:00:12;8.38;;;5.88;;
46463;SDS011;32161;48.148;-1.554;2022-10-16T04:02:40;10.90;;;6.13;;
46463;SDS011;32161;48.148;-1.554;2022-10-16T04:05:08;9.60;;;5.25;;
46463;SDS011;32161;48.148;-1.554;2022-10-16T04:07:35;8.63;;;5.50;;
46463;SDS011;32161;48.148;-1.554;2022-10-16T04:10:05;10.43;;;5.70;;
46463;SDS011;32161;48.148;-1.554;2022-10-16T04:12:33;10.25;;;5.18;;
46463;SDS011;32161;48.148;-1.554;2022-10-16T04:15:01;6.28;;;5.57;;
46463;SDS011;32161;48.148;-1.554;2022-10-16T04:17:29;7.53;;;5.28;;
46463;SDS011;32161;48.148;-1.554;2022-10-16T04:19:57;10.63;;;5.57;;
46463;SDS011;32161;48.148;-1.554;2022-10-16T04:22:24;9.65;;;5.80;;
46463;SDS011;32161;48.148;-1.554;2022-10-16T04:24:52;8.35;;;5.38;;
46463;SDS011;32161;48.148;-1.554;2022-10-16T04:27:21;9.02;;;5.07;;
46463;SDS011;32161;48.148;-1.554;2022-10-16T04:29:49;9.25;;;5.70;;
46463;SDS011;32161;48.148;-1.554;2022-10-16T04:32:16;8.80;;;5.20;;
46463;SDS011;32161;48.148;-1.554;2022-10-16T04:34:44;10.55;;;5.22;;
46463;SDS011;32161;48.148;-1.554;2022-10-16T04:37:12;11.68;;;5.78;;
46463;SDS011;32161;48.148;-1.554;2022-10-16T04:39:39;11.88;;;5.35;;
46463;SDS011;32161;48.148;-1.554;2022-10-16T04:42:07;7.72;;;5.40;;
46463;SDS011;32161;48.148;-1.554;2022-10-16T04:44:36;8.40;;;5.80;;
46463;SDS011;32161;48.148;-1.554;2022-10-16T04:47:04;9.55;;;5.32;;
46463;SDS011;32161;48.148;-1.554;2022-10-16T04:49:31;13.02;;;5.63;;
46463;SDS011;32161;48.148;-1.554;2022-10-16T04:51:59;9.02;;;5.68;;
46463;SDS011;32161;48.148;-1.554;2022-10-16T04:54:26;11.40;;;6.35;;
46463;SDS011;32161;48.148;-1.554;2022-10-16T04:56:54;10.73;;;5.95;;
46463;SDS011;32161;48.148;-1.554;2022-10-16T04:59:22;6.55;;;4.95;;
46463;SDS011;32161;48.148;-1.554;2022-10-16T05:01:51;8.45;;;5.28;;
46463;SDS011;32161;48.148;-1.554;2022-10-16T05:04:19;8.32;;;5.43;;
46463;SDS011;32161;48.148;-1.554;2022-10-16T05:06:47;13.32;;;5.68;;
46463;SDS011;32161;48.148;-1.554;2022-10-16T05:09:15;16.20;;;6.07;;
46463;SDS011;32161;48.148;-1.554;2022-10-16T05:11:42;12.63;;;6.22;;
46463;SDS011;32161;48.148;-1.554;2022-10-16T05:14:10;8.57;;;6.13;;
46463;SDS011;32161;48.148;-1.554;2022-10-16T05:16:37;9.85;;;5.55;;
46463;SDS011;32161;48.148;-1.554;2022-10-16T05:19:07;12.75;;;6.72;;
46463;SDS011;32161;48.148;-1.554;2022-10-16T05:21:34;11.05;;;6.68;;
46463;SDS011;32161;48.148;-1.554;2022-10-16T05:24:02;15.18;;;6.28;;
46463;SDS011;32161;48.148;-1.554;2022-10-16T05:26:30;11.75;;;5.40;;
46463;SDS011;32161;48.148;-1.554;2022-10-16T05:28:57;13.13;;;5.82;;
46463;SDS011;32161;48.148;-1.554;2022-10-16T05:31:25;18.13;;;6.85;;
46463;SDS011;32161;48.148;-1.554;2022-10-16T05:33:57;9.52;;;5.80;;
46463;SDS011;32161;48.148;-1.554;2022-10-16T05:36:27;12.02;;;6.60;;
46463;SDS011;32161;48.148;-1.554;2022-10-16T05:38:55;10.18;;;7.20;;
46463;SDS011;32161;48.148;-1.554;2022-10-16T05:41:22;15.48;;;6.47;;
46463;SDS011;32161;48.148;-1.554;2022-10-16T05:43:51;9.90;;;5.63;;
46463;SDS011;32161;48.148;-1.554;2022-10-16T05:46:19;9.55;;;6.80;;
46463;SDS011;32161;48.148;-1.554;2022-10-16T05:48:47;8.20;;;6.55;;
46463;SDS011;32161;48.148;-1.554;2022-10-16T05:51:15;8.65;;;6.32;;
46463;SDS011;32161;48.148;-1.554;2022-10-16T05:53:43;10.70;;;6.00;;
46463;SDS011;32161;48.148;-1.554;2022-10-16T05:56:11;11.90;;;6.97;;
46463;SDS011;32161;48.148;-1.554;2022-10-16T05:58:39;11.60;;;6.97;;
46463;SDS011;32161;48.148;-1.554;2022-10-16T06:01:10;13.25;;;7.35;;
46463;SDS011;32161;48.148;-1.554;2022-10-16T06:03:39;11.88;;;7.30;;
46463;SDS011;32161;48.148;-1.554;2022-10-16T06:06:07;11.77;;;7.95;;
46463;SDS011;32161;48.148;-1.554;2022-10-16T06:08:36;12.32;;;7.60;;
46463;SDS011;32161;48.148;-1.554;2022-10-16T06:11:07;12.98;;;7.15;;
46463;SDS011;32161;48.148;-1.554;2022-10-16T06:13:37;13.68;;;7.35;;
46463;SDS011;32161;48.148;-1.554;2022-10-16T06:16:07;13.38;;;7.65;;
46463;SDS011;32161;48.148;-1.554;2022-10-16T06:18:35;16.90;;;7.63;;
46463;SDS011;32161;48.148;-1.554;2022-10-16T06:21:07;14.35;;;7.57;;
46463;SDS011;32161;48.148;-1.554;2022-10-16T06:23:35;14.90;;;8.00;;
46463;SDS011;32161;48.148;-1.554;2022-10-16T06:26:04;16.27;;;8.07;;
46463;SDS011;32161;48.148;-1.554;2022-10-16T06:28:35;15.75;;;8.65;;
46463;SDS011;32161;48.148;-1.554;2022-10-16T06:31:03;13.07;;;9.40;;
46463;SDS011;32161;48.148;-1.554;2022-10-16T06:33:32;14.02;;;8.60;;
46463;SDS011;32161;48.148;-1.554;2022-10-16T06:36:01;17.35;;;7.22;;
46463;SDS011;32161;48.148;-1.554;2022-10-16T06:38:29;15.18;;;8.25;;
46463;SDS011;32161;48.148;-1.554;2022-10-16T06:40:57;14.95;;;8.77;;
46463;SDS011;32161;48.148;-1.554;2022-10-16T06:43:28;14.05;;;8.88;;
46463;SDS011;32161;48.148;-1.554;2022-10-16T06:45:58;15.23;;;9.27;;
46463;SDS011;32161;48.148;-1.554;2022-10-16T06:48:26;20.77;;;9.52;;
46463;SDS011;32161;48.148;-1.554;2022-10-16T06:50:55;14.38;;;10.52;;
46463;SDS011;32161;48.148;-1.554;2022-10-16T06:53:24;15.05;;;9.93;;
46463;SDS011;32161;48.148;-1.554;2022-10-16T06:55:53;17.60;;;10.23;;
46463;SDS011;32161;48.148;-1.554;2022-10-16T06:58:21;15.77;;;10.00;;
46463;SDS011;32161;48.148;-1.554;2022-10-16T07:00:55;15.40;;;10.02;;
46463;SDS011;32161;48.148;-1.554;2022-10-16T07:03:23;18.33;;;11.82;;
46463;SDS011;32161;48.148;-1.554;2022-10-16T07:05:51;13.82;;;9.23;;
46463;SDS011;32161;48.148;-1.554;2022-10-16T07:08:19;14.65;;;10.32;;
46463;SDS011;32161;48.148;-1.554;2022-10-16T07:10:46;18.30;;;9.73;;
46463;SDS011;32161;48.148;-1.554;2022-10-16T07:13:14;18.27;;;9.50;;
46463;SDS011;32161;48.148;-1.554;2022-10-16T07:15:42;18.08;;;11.35;;
46463;SDS011;32161;48.148;-1.554;2022-10-16T07:18:11;15.23;;;11.30;;
46463;SDS011;32161;48.148;-1.554;2022-10-16T07:20:38;17.35;;;10.20;;
46463;SDS011;32161;48.148;-1.554;2022-10-16T07:23:06;18.10;;;10.70;;
46463;SDS011;32161;48.148;-1.554;2022-10-16T07:25:34;19.60;;;8.90;;
46463;SDS011;32161;48.148;-1.554;2022-10-16T07:28:01;10.88;;;8.85;;
46463;SDS011;32161;48.148;-1.554;2022-10-16T07:30:29;12.55;;;8.98;;
46463;SDS011;32161;48.148;-1.554;2022-10-16T07:32:57;11.70;;;8.75;;
46463;SDS011;32161;48.148;-1.554;2022-10-16T07:35:26;15.35;;;8.60;;
46463;SDS011;32161;48.148;-1.554;2022-10-16T07:37:53;10.73;;;6.40;;
46463;SDS011;32161;48.148;-1.554;2022-10-16T07:40:21;8.52;;;5.35;;
46463;SDS011;32161;48.148;-1.554;2022-10-16T07:42:48;9.07;;;5.97;;
46463;SDS011;32161;48.148;-1.554;2022-10-16T07:45:19;10.02;;;4.82;;
46463;SDS011;32161;48.148;-1.554;2022-10-16T07:47:47;5.05;;;4.65;;
46463;SDS011;32161;48.148;-1.554;2022-10-16T07:50:23;6.40;;;3.50;;
46463;SDS011;32161;48.148;-1.554;2022-10-16T07:53:01;5.22;;;2.00;;
46463;SDS011;32161;48.148;-1.554;2022-10-16T07:55:29;3.53;;;1.90;;
46463;SDS011;32161;48.148;-1.554;2022-10-16T07:57:57;5.55;;;1.88;;
46463;SDS011;32161;48.148;-1.554;2022-10-16T08:00:25;3.90;;;1.40;;
46463;SDS011;32161;48.148;-1.554;2022-10-16T08:02:53;1.40;;;1.20;;
46463;SDS011;32161;48.148;-1.554;2022-10-16T08:05:21;3.47;;;1.30;;
46463;SDS011;32161;48.148;-1.554;2022-10-16T08:07:56;4.38;;;1.50;;
46463;SDS011;32161;48.148;-1.554;2022-10-16T08:10:38;13.65;;;2.08;;
46463;SDS011;32161;48.148;-1.554;2022-10-16T08:13:18;2.55;;;1.23;;
46463;SDS011;32161;48.148;-1.554;2022-10-16T08:15:47;3.17;;;1.83;;
46463;SDS011;32161;48.148;-1.554;2022-10-16T08:18:24;2.50;;;1.70;;
46463;SDS011;32161;48.148;-1.554;2022-10-16T08:20:55;5.75;;;2.38;;
46463;SDS011;32161;48.148;-1.554;2022-10-16T08:23:28;6.55;;;2.60;;
46463;SDS011;32161;48.148;-1.554;2022-10-16T08:25:56;4.55;;;2.30;;
46463;SDS011;32161;48.148;-1.554;2022-10-16T08:28:31;3.85;;;2.08;;
46463;SDS011;32161;48.148;-1.554;2022-10-16T08:31:04;5.97;;;2.22;;
46463;SDS011;32161;48.148;-1.554;2022-10-16T08:33:34;4.93;;;2.00;;
46463;SDS011;32161;48.148;-1.554;2022-10-16T08:36:02;2.65;;;1.60;;
46463;SDS011;32161;48.148;-1.554;2022-10-16T08:38:33;1.50;;;1.30;;
46463;SDS011;32161;48.148;-1.554;2022-10-16T08:41:10;4.03;;;1.42;;
46463;SDS011;32161;48.148;-1.554;2022-10-16T08:44:39;1.83;;;1.20;;
46463;SDS011;32161;48.148;-1.554;2022-10-16T08:47:48;1.88;;;1.20;;
46463;SDS011;32161;48.148;-1.554;2022-10-16T08:50:51;4.05;;;1.00;;
46463;SDS011;32161;48.148;-1.554;2022-10-16T08:53:20;4.68;;;1.38;;
46463;SDS011;32161;48.148;-1.554;2022-10-16T08:55:54;2.25;;;0.80;;
46463;SDS011;32161;48.148;-1.554;2022-10-16T08:58:25;7.25;;;1.17;;
46463;SDS011;32161;48.148;-1.554;2022-10-16T09:00:56;2.63;;;0.82;;
46463;SDS011;32161;48.148;-1.554;2022-10-16T09:03:37;2.72;;;0.88;;
46463;SDS011;32161;48.148;-1.554;2022-10-16T09:06:31;4.93;;;0.75;;
46463;SDS011;32161;48.148;-1.554;2022-10-16T09:09:15;2.38;;;0.85;;
46463;SDS011;32161;48.148;-1.554;2022-10-16T09:12:11;3.05;;;0.70;;
46463;SDS011;32161;48.148;-1.554;2022-10-16T09:14:50;4.22;;;1.02;;
46463;SDS011;32161;48.148;-1.554;2022-10-16T09:17:37;4.85;;;1.23;;
46463;SDS011;32161;48.148;-1.554;2022-10-16T09:20:19;6.47;;;1.52;;
46463;SDS011;32161;48.148;-1.554;2022-10-16T09:23:14;3.35;;;0.63;;
46463;SDS011;32161;48.148;-1.554;2022-10-16T09:25:45;6.50;;;0.90;;
46463;SDS011;32161;48.148;-1.554;2022-10-16T09:28:16;1.58;;;0.93;;
46463;SDS011;32161;48.148;-1.554;2022-10-16T09:30:45;3.50;;;0.65;;
46463;SDS011;32161;48.148;-1.554;2022-10-16T09:33:15;1.88;;;0.57;;
46463;SDS011;32161;48.148;-1.554;2022-10-16T09:35:45;2.78;;;0.85;;
46463;SDS011;32161;48.148;-1.554;2022-10-16T09:38:24;4.22;;;0.47;;
46463;SDS011;32161;48.148;-1.554;2022-10-16T09:40:55;1.45;;;0.40;;
46463;SDS011;32161;48.148;-1.554;2022-10-16T09:43:26;1.60;;;0.50;;
46463;SDS011;32161;48.148;-1.554;2022-10-16T09:46:01;3.30;;;0.63;;
46463;SDS011;32161;48.148;-1.554;2022-10-16T09:48:33;7.57;;;0.80;;
46463;SDS011;32161;48.148;-1.554;2022-10-16T09:51:06;3.67;;;0.75;;
46463;SDS011;32161;48.148;-1.554;2022-10-16T09:53:45;1.67;;;0.90;;
46463;SDS011;32161;48.148;-1.554;2022-10-16T09:56:20;2.80;;;1.23;;
46463;SDS011;32161;48.148;-1.554;2022-10-16T09:58:52;2.58;;;0.88;;
46463;SDS011;32161;48.148;-1.554;2022-10-16T10:01:29;3.30;;;0.80;;
46463;SDS011;32161;48.148;-1.554;2022-10-16T10:04:04;3.42;;;0.70;;
46463;SDS011;32161;48.148;-1.554;2022-10-16T10:06:33;5.38;;;0.70;;
46463;SDS011;32161;48.148;-1.554;2022-10-16T10:11:47;1.92;;;0.50;;
46463;SDS011;32161;48.148;-1.554;2022-10-16T10:14:23;2.50;;;0.60;;
46463;SDS011;32161;48.148;-1.554;2022-10-16T10:17:08;2.97;;;0.82;;
46463;SDS011;32161;48.148;-1.554;2022-10-16T10:19:47;2.63;;;0.43;;
46463;SDS011;32161;48.148;-1.554;2022-10-16T10:22:24;3.75;;;0.60;;
46463;SDS011;32161;48.148;-1.554;2022-10-16T10:25:12;3.50;;;0.80;;
46463;SDS011;32161;48.148;-1.554;2022-10-16T10:27:56;2.17;;;0.60;;
46463;SDS011;32161;48.148;-1.554;2022-10-16T10:31:08;2.55;;;0.73;;
46463;SDS011;32161;48.148;-1.554;2022-10-16T10:33:42;3.70;;;0.80;;
46463;SDS011;32161;48.148;-1.554;2022-10-16T10:36:22;3.85;;;0.70;;
46463;SDS011;32161;48.148;-1.554;2022-10-16T10:38:58;9.25;;;1.38;;
46463;SDS011;32161;48.148;-1.554;2022-10-16T10:44:44;1.77;;;0.75;;
46463;SDS011;32161;48.148;-1.554;2022-10-16T10:47:35;5.68;;;0.75;;
46463;SDS011;32161;48.148;-1.554;2022-10-16T10:50:17;3.17;;;0.60;;
46463;SDS011;32161;48.148;-1.554;2022-10-16T10:53:02;3.42;;;1.17;;
46463;SDS011;32161;48.148;-1.554;2022-10-16T10:55:39;1.17;;;0.50;;
46463;SDS011;32161;48.148;-1.554;2022-10-16T10:58:19;2.72;;;0.80;;
46463;SDS011;32161;48.148;-1.554;2022-10-16T11:01:31;5.47;;;0.73;;
46463;SDS011;32161;48.148;-1.554;2022-10-16T11:07:24;2.38;;;0.50;;
46463;SDS011;32161;48.148;-1.554;2022-10-16T11:09:57;3.30;;;1.02;;
46463;SDS011;32161;48.148;-1.554;2022-10-16T11:12:33;2.05;;;0.45;;
46463;SDS011;32161;48.148;-1.554;2022-10-16T11:15:10;3.75;;;0.70;;
46463;SDS011;32161;48.148;-1.554;2022-10-16T11:17:42;2.70;;;1.02;;
46463;SDS011;32161;48.148;-1.554;2022-10-16T11:20:17;3.10;;;0.80;;
46463;SDS011;32161;48.148;-1.554;2022-10-16T11:22:50;2.25;;;1.20;;
46463;SDS011;32161;48.148;-1.554;2022-10-16T11:25:24;4.38;;;1.70;;
46463;SDS011;32161;48.148;-1.554;2022-10-16T11:27:57;3.70;;;1.83;;
46463;SDS011;32161;48.148;-1.554;2022-10-16T11:30:30;4.07;;;0.90;;
46463;SDS011;32161;48.148;-1.554;2022-10-16T11:36:14;0.65;;;0.63;;
46463;SDS011;32161;48.148;-1.554;2022-10-16T11:38:51;4.50;;;1.17;;
46463;SDS011;32161;48.148;-1.554;2022-10-16T11:41:27;5.63;;;1.52;;
46463;SDS011;32161;48.148;-1.554;2022-10-16T11:44:06;3.72;;;1.08;;
46463;SDS011;32161;48.148;-1.554;2022-10-16T11:46:46;8.40;;;1.30;;
46463;SDS011;32161;48.148;-1.554;2022-10-16T11:49:25;6.03;;;1.10;;
46463;SDS011;32161;48.148;-1.554;2022-10-16T11:51:59;5.72;;;1.73;;
46463;SDS011;32161;48.148;-1.554;2022-10-16T11:54:45;4.97;;;1.10;;
46463;SDS011;32161;48.148;-1.554;2022-10-16T11:57:19;3.60;;;1.00;;
46463;SDS011;32161;48.148;-1.554;2022-10-16T11:59:51;2.38;;;0.80;;
46463;SDS011;32161;48.148;-1.554;2022-10-16T12:02:40;4.68;;;1.60;;
46463;SDS011;32161;48.148;-1.554;2022-10-16T12:05:22;1.30;;;0.90;;
46463;SDS011;32161;48.148;-1.554;2022-10-16T12:08:04;3.97;;;1.30;;
46463;SDS011;32161;48.148;-1.554;2022-10-16T12:10:36;4.22;;;1.05;;
46463;SDS011;32161;48.148;-1.554;2022-10-16T12:16:19;4.03;;;1.15;;
46463;SDS011;32161;48.148;-1.554;2022-10-16T12:18:50;3.40;;;1.13;;
46463;SDS011;32161;48.148;-1.554;2022-10-16T12:21:41;2.35;;;1.23;;
46463;SDS011;32161;48.148;-1.554;2022-10-16T12:24:20;1.75;;;0.90;;
46463;SDS011;32161;48.148;-1.554;2022-10-16T12:26:57;2.00;;;1.40;;
46463;SDS011;32161;48.148;-1.554;2022-10-16T12:29:34;1.13;;;1.00;;
46463;SDS011;32161;48.148;-1.554;2022-10-16T12:32:05;2.95;;;1.45;;
46463;SDS011;32161;48.148;-1.554;2022-10-16T12:34:52;1.33;;;1.00;;
46463;SDS011;32161;48.148;-1.554;2022-10-16T12:37:21;3.70;;;1.35;;
46463;SDS011;32161;48.148;-1.554;2022-10-16T12:39:57;3.58;;;1.27;;
46463;SDS011;32161;48.148;-1.554;2022-10-16T12:42:38;3.78;;;1.40;;
46463;SDS011;32161;48.148;-1.554;2022-10-16T12:47:56;2.13;;;1.30;;
46463;SDS011;32161;48.148;-1.554;2022-10-16T12:50:32;1.73;;;1.02;;
46463;SDS011;32161;48.148;-1.554;2022-10-16T12:53:03;1.95;;;1.50;;
46463;SDS011;32161;48.148;-1.554;2022-10-16T12:55:53;3.80;;;1.45;;
46463;SDS011;32161;48.148;-1.554;2022-10-16T12:58:50;4.50;;;1.17;;
46463;SDS011;32161;48.148;-1.554;2022-10-16T13:01:57;4.68;;;1.38;;
46463;SDS011;32161;48.148;-1.554;2022-10-16T13:05:09;7.03;;;1.80;;
46463;SDS011;32161;48.148;-1.554;2022-10-16T13:07:56;3.03;;;1.48;;
46463;SDS011;32161;48.148;-1.554;2022-10-16T13:10:41;3.03;;;1.58;;
46463;SDS011;32161;48.148;-1.554;2022-10-16T13:13:33;1.95;;;1.30;;
46463;SDS011;32161;48.148;-1.554;2022-10-16T13:16:36;1.63;;;1.52;;
46463;SDS011;32161;48.148;-1.554;2022-10-16T13:19:18;2.92;;;1.10;;
46463;SDS011;32161;48.148;-1.554;2022-10-16T13:22:02;2.13;;;1.65;;
46463;SDS011;32161;48.148;-1.554;2022-10-16T13:24:42;1.77;;;1.38;;
46463;SDS011;32161;48.148;-1.554;2022-10-16T13:27:25;3.47;;;1.05;;
46463;SDS011;32161;48.148;-1.554;2022-10-16T13:30:10;1.95;;;1.20;;
46463;SDS011;32161;48.148;-1.554;2022-10-16T13:32:43;1.45;;;1.02;;
46463;SDS011;32161;48.148;-1.554;2022-10-16T13:35:22;1.83;;;0.95;;
46463;SDS011;32161;48.148;-1.554;2022-10-16T13:38:02;1.45;;;1.35;;
46463;SDS011;32161;48.148;-1.554;2022-10-16T13:40:47;2.20;;;0.88;;
46463;SDS011;32161;48.148;-1.554;2022-10-16T13:44:17;1.00;;;0.82;;
46463;SDS011;32161;48.148;-1.554;2022-10-16T13:46:47;1.05;;;0.95;;
46463;SDS011;32161;48.148;-1.554;2022-10-16T13:49:26;2.13;;;1.63;;
46463;SDS011;32161;48.148;-1.554;2022-10-16T13:51:54;2.55;;;1.48;;
46463;SDS011;32161;48.148;-1.554;2022-10-16T13:54:25;1.67;;;1.58;;
46463;SDS011;32161;48.148;-1.554;2022-10-16T13:56:55;1.55;;;1.50;;
46463;SDS011;32161;48.148;-1.554;2022-10-16T13:59:34;2.03;;;1.50;;
46463;SDS011;32161;48.148;-1.554;2022-10-16T14:02:05;2.05;;;1.40;;
46463;SDS011;32161;48.148;-1.554;2022-10-16T14:04:46;3.53;;;2.10;;
46463;SDS011;32161;48.148;-1.554;2022-10-16T14:07:23;1.73;;;1.63;;
46463;SDS011;32161;48.148;-1.554;2022-10-16T14:09:53;0.82;;;0.82;;
46463;SDS011;32161;48.148;-1.554;2022-10-16T14:12:22;2.22;;;1.00;;
46463;SDS011;32161;48.148;-1.554;2022-10-16T14:14:52;1.65;;;0.90;;
46463;SDS011;32161;48.148;-1.554;2022-10-16T14:17:22;0.90;;;0.68;;
46463;SDS011;32161;48.148;-1.554;2022-10-16T14:19:56;1.58;;;0.80;;
46463;SDS011;32161;48.148;-1.554;2022-10-16T14:22:28;0.70;;;0.70;;
46463;SDS011;32161;48.148;-1.554;2022-10-16T14:24:58;1.02;;;0.80;;
46463;SDS011;32161;48.148;-1.554;2022-10-16T14:27:30;1.95;;;1.00;;
46463;SDS011;32161;48.148;-1.554;2022-10-16T14:30:15;1.85;;;1.20;;
46463;SDS011;32161;48.148;-1.554;2022-10-16T14:32:53;0.80;;;0.80;;
46463;SDS011;32161;48.148;-1.554;2022-10-16T14:35:27;3.28;;;1.00;;
46463;SDS011;32161;48.148;-1.554;2022-10-16T14:37:58;1.00;;;1.00;;
46463;SDS011;32161;48.148;-1.554;2022-10-16T14:40:28;0.50;;;0.50;;
46463;SDS011;32161;48.148;-1.554;2022-10-16T14:42:59;1.25;;;0.93;;
46463;SDS011;32161;48.148;-1.554;2022-10-16T14:45:29;0.77;;;0.60;;
46463;SDS011;32161;48.148;-1.554;2022-10-16T14:48:01;1.85;;;0.80;;
46463;SDS011;32161;48.148;-1.554;2022-10-16T14:50:46;0.75;;;0.75;;
46463;SDS011;32161;48.148;-1.554;2022-10-16T14:53:19;3.67;;;0.90;;
46463;SDS011;32161;48.148;-1.554;2022-10-16T14:55:47;2.10;;;0.90;;
46463;SDS011;32161;48.148;-1.554;2022-10-16T14:58:15;2.58;;;0.65;;
46463;SDS011;32161;48.148;-1.554;2022-10-16T15:00:47;0.98;;;0.57;;
46463;SDS011;32161;48.148;-1.554;2022-10-16T15:03:15;1.30;;;0.70;;
46463;SDS011;32161;48.148;-1.554;2022-10-16T15:05:43;2.03;;;0.77;;
46463;SDS011;32161;48.148;-1.554;2022-10-16T15:08:11;2.58;;;0.80;;
46463;SDS011;32161;48.148;-1.554;2022-10-16T15:10:42;0.80;;;0.80;;
46463;SDS011;32161;48.148;-1.554;2022-10-16T15:13:11;1.15;;;0.60;;
46463;SDS011;32161;48.148;-1.554;2022-10-16T15:15:41;0.82;;;0.80;;
46463;SDS011;32161;48.148;-1.554;2022-10-16T15:18:12;0.70;;;0.70;;
46463;SDS011;32161;48.148;-1.554;2022-10-16T15:20:47;0.63;;;0.63;;
46463;SDS011;32161;48.148;-1.554;2022-10-16T15:23:17;3.50;;;0.90;;
46463;SDS011;32161;48.148;-1.554;2022-10-16T15:25:46;0.82;;;0.75;;